Toronto City

CXTO · 安大略, 加拿大

罗盘
风向 的 风向 330°
风向 到 风: 11 kt, 阵阵 21 kt, 4 beaufort

添加一条跑道以查看侧风和逆风信息。

添置 跑道
0 1.000 2.000 3.000 4.000 5.000
BKN 2.800 ft
METAR CYOO 071500Z AUTO 33011G21KT 9SM BKN028 10/04 A3006 RMK SLP183

METAR Toronto City - CXTO

Toronto City是多伦多,加拿大中的未知。 视场标高为377 ft。 该领域的国际民航组织标志是CXTO.

这份报告是针对2022年10月7日 11:00, 当地时间在Toronto/Oshawa Executive Airport进行的。

机场观察

风向为330°,速度为11 kt。 已测得21 kt的阵风。

可见度为9 mi。

有碎云在2.800 ft的高度。 破损或更高的上限为2.800 ft。

温度为10 °C,阵风为6 °C。 露点为4 °C,相对湿度为67%。 海平面上的气压为30,06 inHg (QNH)。

白天

今天,太阳从07:22升起,在18:48降落。 这适用于Toronto City,世界夏令时可能有所不同。 当地时间与世界标准时间之间的时差为-4 小时。 夏令时目前正在进行中。

公司介绍

我们没有关于这个机场的公司信息。

体会

到Vliegles.nl去找飞行课程,跳伞和其他飞行体验。 浏览页面,了解Toronto City附近所有可用的活动。 你也可以使用搜索功能来寻找你所在地附近的特定飞行课程、跳伞或其他飞行体验。

乌云

2.800 ft BKN 碎云

温度 & 天气

温度 10 °C
露点 4 °C
相对湿度 67%
风寒 6 °C
Kp-index 0 (0-9)

评论

SLP183海平面压力为30,07 inHg (30,07 inHg)

白天

日出
07:20
中午
13:03
日落
18:46 (7h 34m)

小工具

你想在你的网站上有一个关于Toronto City的当前航空天气(METAR)的小部件吗?

</> 显示HTML代码

我们和第三方通过cookies跟踪您在我们网站上的上网行为。如果您继续,我们认为您同意我们的cookie政策。 了解更多